createdAt,value
2018-12-15T00:01:56.780Z,53.83
2018-12-15T00:04:24.168Z,68.17
2018-12-15T00:06:51.576Z,65.00
2018-12-15T00:09:19.020Z,55.70
2018-12-15T00:11:46.428Z,65.95
2018-12-15T00:14:13.913Z,70.37
2018-12-15T00:16:41.347Z,61.08
2018-12-15T00:19:08.751Z,64.87
2018-12-15T00:21:36.146Z,55.65
2018-12-15T00:24:03.685Z,63.87
2018-12-15T00:26:31.080Z,63.83
2018-12-15T00:28:58.468Z,66.33
2018-12-15T00:31:25.876Z,75.20
2018-12-15T00:33:53.286Z,70.97
2018-12-15T00:36:20.692Z,66.92
2018-12-15T00:38:48.087Z,72.53
2018-12-15T00:41:15.482Z,69.75
2018-12-15T00:43:42.877Z,71.95
2018-12-15T00:46:10.272Z,68.00
2018-12-15T00:48:37.726Z,64.12
2018-12-15T00:51:05.166Z,60.90
2018-12-15T00:53:32.597Z,61.18
2018-12-15T00:56:00.009Z,69.42
2018-12-15T00:58:27.456Z,61.58
2018-12-15T01:00:54.872Z,73.62
2018-12-15T01:03:22.260Z,66.37
2018-12-15T01:05:49.657Z,77.62
2018-12-15T01:08:17.116Z,69.03
2018-12-15T01:10:44.548Z,70.60
2018-12-15T01:13:11.948Z,68.75
2018-12-15T01:15:45.224Z,74.42
2018-12-15T01:18:13.524Z,66.22
2018-12-15T01:20:40.929Z,56.70
2018-12-15T01:23:08.320Z,55.73
2018-12-15T01:25:35.720Z,60.60
2018-12-15T01:28:03.116Z,59.77
2018-12-15T01:30:30.522Z,61.08
2018-12-15T01:32:57.917Z,67.37
2018-12-15T01:35:25.328Z,67.72
2018-12-15T01:37:52.776Z,73.07
2018-12-15T01:40:20.160Z,63.73
2018-12-15T01:42:47.565Z,64.32
2018-12-15T01:45:14.952Z,68.22
2018-12-15T01:47:42.356Z,66.25
2018-12-15T01:50:09.810Z,62.80
2018-12-15T01:52:37.199Z,62.40
2018-12-15T01:55:04.724Z,60.73
2018-12-15T01:57:32.111Z,68.22
2018-12-15T01:59:59.505Z,61.63
2018-12-15T02:02:26.951Z,56.92
2018-12-15T02:04:54.356Z,58.68
2018-12-15T02:07:21.784Z,67.65
2018-12-15T02:09:49.220Z,74.80
2018-12-15T02:12:16.614Z,60.30
2018-12-15T02:14:44.021Z,62.15
2018-12-15T02:17:11.416Z,58.30
2018-12-15T02:19:38.808Z,52.65
2018-12-15T02:22:06.212Z,66.10
2018-12-15T02:24:33.620Z,61.30
2018-12-15T02:27:01.008Z,57.98
2018-12-15T02:29:28.411Z,64.45
2018-12-15T02:31:55.805Z,58.15
2018-12-15T02:34:23.211Z,67.00
2018-12-15T02:36:50.601Z,60.38
2018-12-15T02:39:18.009Z,66.65
2018-12-15T02:41:47.340Z,62.78
2018-12-15T02:44:14.853Z,68.60
2018-12-15T02:46:42.262Z,69.45
2018-12-15T02:49:09.743Z,57.55
2018-12-15T02:51:37.144Z,59.73
2018-12-15T02:54:04.562Z,61.77
2018-12-15T02:56:31.946Z,63.60
2018-12-15T02:58:59.339Z,61.15
2018-12-15T03:01:26.741Z,64.50
2018-12-15T03:03:54.129Z,69.17
2018-12-15T03:06:21.517Z,63.80
2018-12-15T03:08:48.926Z,75.52
2018-12-15T03:11:16.364Z,74.47
2018-12-15T03:13:43.760Z,59.45
2018-12-15T03:16:11.167Z,65.10
2018-12-15T03:18:38.566Z,64.47
2018-12-15T03:21:05.949Z,62.53
2018-12-15T03:23:33.412Z,69.25
2018-12-15T03:26:00.806Z,60.55
2018-12-15T03:28:28.201Z,66.82
2018-12-15T03:30:55.620Z,77.90
2018-12-15T03:33:23.106Z,73.55
2018-12-15T03:35:50.495Z,69.22
2018-12-15T03:38:17.901Z,73.47
2018-12-15T03:40:45.388Z,68.95
2018-12-15T03:43:12.780Z,74.17
2018-12-15T03:45:40.186Z,60.85
2018-12-15T03:48:07.617Z,72.03
2018-12-15T03:50:35.017Z,71.35
2018-12-15T03:53:02.516Z,75.08
2018-12-15T03:55:29.915Z,63.83
2018-12-15T03:57:57.397Z,63.75
2018-12-15T04:00:24.800Z,76.40
2018-12-15T04:02:52.205Z,66.92
2018-12-15T04:05:19.677Z,71.87
2018-12-15T04:07:47.085Z,70.28
2018-12-15T04:10:14.477Z,67.70
2018-12-15T04:12:41.873Z,71.65
2018-12-15T04:15:09.292Z,71.40
2018-12-15T04:17:36.698Z,61.88
2018-12-15T04:20:04.691Z,71.57
2018-12-15T04:22:32.185Z,79.67
2018-12-15T04:24:59.581Z,83.80
2018-12-15T04:27:27.057Z,67.00
2018-12-15T04:29:54.464Z,70.60
2018-12-15T04:32:21.857Z,73.00
2018-12-15T04:34:49.252Z,76.55
2018-12-15T04:37:16.667Z,67.62
2018-12-15T04:39:44.148Z,70.25
2018-12-15T04:42:11.537Z,73.02
2018-12-15T04:44:38.950Z,73.87
2018-12-15T04:47:06.703Z,79.67
2018-12-15T04:49:34.177Z,75.25
2018-12-15T04:52:01.566Z,78.70
2018-12-15T04:54:28.964Z,81.17
2018-12-15T04:56:56.366Z,83.37
2018-12-15T04:59:23.781Z,69.25
2018-12-15T05:01:51.241Z,71.30
2018-12-15T05:04:18.633Z,86.20
2018-12-15T05:06:46.045Z,69.22
2018-12-15T05:09:13.438Z,81.28
2018-12-15T05:11:40.836Z,76.10
2018-12-15T05:14:08.240Z,77.75
2018-12-15T05:16:35.639Z,72.75
2018-12-15T05:19:03.032Z,69.53
2018-12-15T05:21:30.441Z,66.33
2018-12-15T05:23:57.841Z,85.87
2018-12-15T05:26:25.236Z,91.00
2018-12-15T05:28:52.643Z,88.92
2018-12-15T05:31:20.041Z,72.90
2018-12-15T05:33:47.436Z,85.55
2018-12-15T05:36:14.846Z,76.07
2018-12-15T05:38:42.249Z,77.65
2018-12-15T05:41:09.653Z,81.30
2018-12-15T05:43:37.144Z,82.50
2018-12-15T05:46:04.585Z,74.97
2018-12-15T05:48:31.981Z,72.70
2018-12-15T05:50:59.396Z,82.60
2018-12-15T05:53:26.794Z,73.95
2018-12-15T05:55:54.185Z,83.65
2018-12-15T05:58:21.602Z,78.72
2018-12-15T06:00:48.998Z,75.92
2018-12-15T06:03:16.389Z,81.37
2018-12-15T06:05:43.803Z,71.42
2018-12-15T06:08:11.193Z,72.20
2018-12-15T06:10:38.633Z,73.47
2018-12-15T06:13:06.046Z,77.47
2018-12-15T06:15:33.441Z,70.72
2018-12-15T06:18:00.836Z,72.75
2018-12-15T06:20:28.249Z,73.05
2018-12-15T06:22:55.634Z,77.45
2018-12-15T06:25:23.032Z,76.25
2018-12-15T06:27:50.436Z,74.10
2018-12-15T06:30:17.830Z,84.05
2018-12-15T06:32:48.161Z,80.62
2018-12-15T06:35:15.593Z,83.70
2018-12-15T06:37:42.984Z,98.33
2018-12-15T06:40:10.435Z,90.97
2018-12-15T06:42:37.841Z,96.63
2018-12-15T06:45:05.925Z,83.25
2018-12-15T06:47:33.321Z,84.70
2018-12-15T06:50:00.730Z,83.17
2018-12-15T06:52:28.135Z,86.87
2018-12-15T06:54:55.530Z,90.57
2018-12-15T06:57:22.943Z,81.15
2018-12-15T06:59:50.340Z,92.17
2018-12-15T07:02:17.780Z,68.12
2018-12-15T07:04:45.193Z,90.05
2018-12-15T07:07:12.592Z,85.35
2018-12-15T07:09:39.980Z,82.70
2018-12-15T07:12:07.489Z,83.42
2018-12-15T07:14:34.885Z,87.17
2018-12-15T07:17:02.280Z,93.12
2018-12-15T07:19:29.692Z,99.20
2018-12-15T07:21:57.092Z,87.57
2018-12-15T07:24:24.492Z,89.97
2018-12-15T07:26:51.904Z,91.12
2018-12-15T07:29:19.393Z,90.17
2018-12-15T07:31:46.798Z,84.32
2018-12-15T07:34:14.209Z,91.42
2018-12-15T07:36:41.648Z,85.00
2018-12-15T07:39:09.037Z,86.10
2018-12-15T07:41:36.541Z,79.30
2018-12-15T07:44:04.036Z,91.72
2018-12-15T07:46:31.429Z,79.97
2018-12-15T07:48:58.855Z,85.32
2018-12-15T07:51:26.427Z,89.40
2018-12-15T07:53:53.825Z,95.38
2018-12-15T07:59:04.136Z,95.17
2018-12-15T08:01:31.544Z,86.15
2018-12-15T08:03:58.988Z,91.40
2018-12-15T08:06:26.441Z,101.72
2018-12-15T08:08:53.857Z,84.15
2018-12-15T08:11:26.777Z,85.30
2018-12-15T08:13:56.142Z,80.05
2018-12-15T08:16:23.537Z,83.85
2018-12-15T08:18:50.934Z,92.75
2018-12-15T08:21:18.344Z,80.87
2018-12-15T08:23:45.766Z,84.62
2018-12-15T08:26:13.265Z,72.37
2018-12-15T08:28:40.683Z,77.53
2018-12-15T08:31:08.096Z,86.65
2018-12-15T08:33:35.481Z,86.17
2018-12-15T08:36:02.888Z,83.58
2018-12-15T08:38:30.288Z,85.55
2018-12-15T08:40:57.739Z,93.17
2018-12-15T08:43:25.145Z,78.25
2018-12-15T08:45:52.533Z,80.20
2018-12-15T08:48:20.012Z,80.12
2018-12-15T08:50:47.584Z,86.00
2018-12-15T08:53:15.028Z,84.07
2018-12-15T08:55:42.429Z,82.27
2018-12-15T08:58:09.844Z,73.47
2018-12-15T09:00:37.288Z,80.47
2018-12-15T09:03:04.683Z,88.10
2018-12-15T09:05:32.085Z,104.35
2018-12-15T09:07:59.480Z,79.62
2018-12-15T09:10:26.876Z,69.15
2018-12-15T09:12:54.279Z,71.02
2018-12-15T09:15:21.725Z,80.10
2018-12-15T09:17:49.123Z,76.25
2018-12-15T09:20:16.573Z,87.55
2018-12-15T09:22:44.011Z,70.08
2018-12-15T09:25:11.401Z,82.57
2018-12-15T09:27:38.815Z,69.12
2018-12-15T09:30:06.713Z,83.50
2018-12-15T09:32:34.189Z,77.32
2018-12-15T09:35:01.600Z,81.78
2018-12-15T09:37:29.041Z,83.67
2018-12-15T09:39:56.508Z,88.12
2018-12-15T09:42:23.925Z,81.22
2018-12-15T09:44:51.330Z,82.40
2018-12-15T09:47:18.805Z,85.67
2018-12-15T09:49:46.301Z,81.65
2018-12-15T09:52:13.745Z,90.95
2018-12-15T09:54:42.680Z,80.15
2018-12-15T09:57:10.136Z,71.37
2018-12-15T09:59:37.535Z,77.25
2018-12-15T10:02:04.987Z,79.22
2018-12-15T10:04:32.386Z,72.40
2018-12-15T10:06:59.787Z,68.28
2018-12-15T10:09:27.172Z,68.67
2018-12-15T10:11:54.580Z,71.22
2018-12-15T10:14:21.987Z,75.75
2018-12-15T10:16:49.376Z,73.45
2018-12-15T10:19:16.801Z,75.70
2018-12-15T10:21:44.196Z,71.80
2018-12-15T10:24:11.585Z,68.97
2018-12-15T10:26:39.002Z,72.25
2018-12-15T10:29:08.352Z,68.60
2018-12-15T10:31:41.418Z,73.62
2018-12-15T10:34:08.817Z,71.75
2018-12-15T10:36:36.237Z,69.27
2018-12-15T10:39:06.744Z,66.97
2018-12-15T10:41:34.153Z,69.82
2018-12-15T10:44:01.553Z,72.35
2018-12-15T10:46:28.944Z,82.15
2018-12-15T10:48:56.348Z,63.33
2018-12-15T10:51:23.837Z,66.10
2018-12-15T10:53:51.235Z,66.07
2018-12-15T10:56:18.684Z,69.12
2018-12-15T10:58:46.073Z,70.55
2018-12-15T11:01:19.070Z,65.90
2018-12-15T11:03:46.484Z,80.03
2018-12-15T11:06:13.993Z,78.67
2018-12-15T11:08:41.406Z,86.65
2018-12-15T11:11:08.791Z,67.05
2018-12-15T11:13:36.187Z,83.00
2018-12-15T11:16:03.587Z,61.00
2018-12-15T11:18:30.976Z,68.33
2018-12-15T11:20:58.376Z,69.07
2018-12-15T11:23:25.785Z,75.12
2018-12-15T11:25:53.172Z,71.90
2018-12-15T11:28:20.571Z,67.70
2018-12-15T11:30:47.978Z,68.35
2018-12-15T11:33:15.373Z,68.40
2018-12-15T11:35:42.761Z,76.90
2018-12-15T11:38:10.162Z,69.53
2018-12-15T11:40:37.604Z,66.25
2018-12-15T11:43:04.991Z,63.60
2018-12-15T11:45:32.438Z,62.10
2018-12-15T11:47:59.845Z,65.57
2018-12-15T11:50:27.236Z,65.37
2018-12-15T11:52:54.625Z,70.00
2018-12-15T11:55:22.033Z,67.22
2018-12-15T11:57:49.437Z,68.45
2018-12-15T12:00:17.776Z,66.12
2018-12-15T12:02:45.176Z,64.82
2018-12-15T12:05:12.637Z,64.80
2018-12-15T12:07:40.048Z,70.83
2018-12-15T12:10:07.751Z,79.12
2018-12-15T12:12:35.137Z,58.68
2018-12-15T12:15:02.540Z,60.48
2018-12-15T12:17:29.948Z,66.82
2018-12-15T12:19:57.337Z,72.92
2018-12-15T12:22:24.729Z,72.37
2018-12-15T12:24:52.190Z,63.85
2018-12-15T12:27:19.589Z,70.92
2018-12-15T12:29:46.981Z,62.60
2018-12-15T12:32:14.383Z,77.03
2018-12-15T12:34:41.784Z,79.05
2018-12-15T12:37:09.178Z,72.15
2018-12-15T12:39:36.585Z,69.40
2018-12-15T12:42:04.070Z,60.75
2018-12-15T12:44:31.464Z,69.22
2018-12-15T12:46:58.869Z,77.60
2018-12-15T12:49:26.256Z,65.57
2018-12-15T12:51:53.649Z,56.92
2018-12-15T12:54:21.046Z,61.53
2018-12-15T12:56:48.437Z,58.50
2018-12-15T12:59:15.828Z,60.05
2018-12-15T13:01:43.248Z,70.65
2018-12-15T13:04:10.636Z,77.58
2018-12-15T13:06:38.025Z,66.00
2018-12-15T13:09:06.329Z,62.80
2018-12-15T13:11:33.729Z,61.30
2018-12-15T13:14:01.279Z,65.00
2018-12-15T13:16:28.924Z,62.75
2018-12-15T13:18:56.340Z,61.28
2018-12-15T13:21:23.728Z,59.00
2018-12-15T13:23:51.128Z,65.78
2018-12-15T13:26:18.520Z,73.78
2018-12-15T13:28:45.964Z,68.20
2018-12-15T13:31:14.145Z,64.05
2018-12-15T13:33:41.583Z,62.25
2018-12-15T13:36:12.850Z,67.12
2018-12-15T13:38:40.533Z,59.90
2018-12-15T13:41:08.033Z,57.60
2018-12-15T13:43:35.529Z,61.63
2018-12-15T13:46:02.927Z,69.37
2018-12-15T13:48:30.317Z,56.98
2018-12-15T13:50:57.752Z,67.03
2018-12-15T13:53:25.209Z,58.68
2018-12-15T13:55:52.600Z,63.70
2018-12-15T13:58:19.996Z,63.40
2018-12-15T14:00:47.416Z,66.75
2018-12-15T14:03:14.804Z,60.45
2018-12-15T14:05:42.188Z,73.85
2018-12-15T14:08:09.593Z,66.42
2018-12-15T14:10:36.990Z,75.47
2018-12-15T14:13:04.420Z,78.07
2018-12-15T14:15:31.844Z,68.85
2018-12-15T14:17:59.236Z,67.12
2018-12-15T14:20:26.682Z,73.42
2018-12-15T14:22:54.092Z,67.03
2018-12-15T14:25:21.485Z,71.37
2018-12-15T14:27:48.878Z,77.22
2018-12-15T14:30:16.289Z,74.60
2018-12-15T14:32:43.728Z,73.70
2018-12-15T14:35:11.172Z,65.17
2018-12-15T14:37:38.581Z,75.30
2018-12-15T14:40:06.273Z,67.03
2018-12-15T14:42:33.717Z,69.62
2018-12-15T14:45:01.120Z,64.55
2018-12-15T14:47:28.514Z,72.67
2018-12-15T14:49:55.908Z,67.27
2018-12-15T14:52:23.360Z,80.65
2018-12-15T14:54:50.752Z,68.10
2018-12-15T14:57:20.102Z,64.53
2018-12-15T14:59:47.513Z,76.62
2018-12-15T15:02:14.902Z,68.22
2018-12-15T15:04:42.296Z,72.47
2018-12-15T15:07:09.716Z,62.65
2018-12-15T15:09:37.117Z,73.72
2018-12-15T15:12:04.517Z,74.12
2018-12-15T15:14:31.945Z,75.60
2018-12-15T15:16:59.364Z,78.30
2018-12-15T15:19:26.760Z,75.12
2018-12-15T15:22:01.021Z,77.25
2018-12-15T15:24:29.369Z,81.90
2018-12-15T15:26:56.769Z,77.90
2018-12-15T15:29:24.175Z,77.20
2018-12-15T15:31:51.577Z,82.97
2018-12-15T15:34:18.997Z,78.10
2018-12-15T15:36:46.409Z,83.20
2018-12-15T15:39:13.808Z,82.92
2018-12-15T15:41:41.209Z,93.40
2018-12-15T15:44:08.621Z,80.87
2018-12-15T15:46:36.016Z,93.72
2018-12-15T15:49:03.463Z,85.35
2018-12-15T15:51:30.967Z,92.15
2018-12-15T15:53:58.355Z,84.42
2018-12-15T15:56:25.759Z,104.23
2018-12-15T15:58:53.169Z,82.42
2018-12-15T16:01:20.573Z,107.35
2018-12-15T16:03:47.966Z,93.15
2018-12-15T16:06:15.373Z,91.75
2018-12-15T16:08:42.765Z,94.72
2018-12-15T16:11:10.164Z,95.17
2018-12-15T16:13:37.569Z,87.12
2018-12-15T16:16:08.848Z,83.87
2018-12-15T16:18:36.249Z,84.28
2018-12-15T16:21:03.713Z,82.08
2018-12-15T16:23:31.109Z,79.25
2018-12-15T16:25:58.502Z,74.47
2018-12-15T16:28:25.904Z,74.82
2018-12-15T16:30:55.066Z,85.85
2018-12-15T16:33:22.476Z,76.22
2018-12-15T16:35:51.306Z,79.42
2018-12-15T16:38:18.701Z,66.95
2018-12-15T16:40:46.112Z,68.00
2018-12-15T16:43:13.526Z,71.47
2018-12-15T16:45:40.969Z,90.12
2018-12-15T16:48:08.375Z,71.62
2018-12-15T16:50:35.780Z,72.60
2018-12-15T16:53:03.177Z,66.47
2018-12-15T16:55:30.577Z,64.42
2018-12-15T16:57:57.987Z,73.52
2018-12-15T17:00:25.385Z,70.52
2018-12-15T17:02:52.833Z,69.10
2018-12-15T17:05:20.244Z,76.62
2018-12-15T17:07:47.724Z,72.70
2018-12-15T17:10:15.164Z,72.50
2018-12-15T17:12:42.616Z,71.28
2018-12-15T17:15:10.104Z,91.37
2018-12-15T17:17:37.549Z,80.22
2018-12-15T17:20:07.262Z,66.47
2018-12-15T17:22:34.665Z,67.08
2018-12-15T17:25:02.069Z,62.48
2018-12-15T17:27:29.905Z,75.25
2018-12-15T17:29:58.447Z,81.17
2018-12-15T17:32:26.064Z,70.35
2018-12-15T17:34:53.519Z,74.07
2018-12-15T17:37:20.963Z,71.82
2018-12-15T17:39:48.357Z,70.37
2018-12-15T17:42:15.805Z,72.27
2018-12-15T17:44:43.193Z,71.12
2018-12-15T17:47:10.596Z,76.80
2018-12-15T17:49:38.001Z,75.03
2018-12-15T17:52:05.392Z,69.90
2018-12-15T17:54:32.788Z,68.15
2018-12-15T17:57:00.200Z,79.03
2018-12-15T17:59:27.585Z,71.05
2018-12-15T18:01:55.121Z,78.00
2018-12-15T18:04:22.529Z,64.70
2018-12-15T18:06:50.012Z,73.05
2018-12-15T18:09:17.464Z,71.92
2018-12-15T18:11:44.921Z,72.72
2018-12-15T18:14:12.317Z,77.35
2018-12-15T18:16:39.712Z,76.87
2018-12-15T18:19:07.466Z,81.85
2018-12-15T18:21:34.869Z,74.90
2018-12-15T18:24:02.348Z,71.90
2018-12-15T18:26:29.756Z,78.83
2018-12-15T18:28:57.150Z,72.40
2018-12-15T18:31:24.643Z,77.58
2018-12-15T18:33:52.037Z,72.00
2018-12-15T18:36:19.441Z,69.80
2018-12-15T18:38:46.837Z,62.88
2018-12-15T18:41:14.248Z,70.15
2018-12-15T18:43:41.652Z,66.57
2018-12-15T18:46:09.106Z,62.30
2018-12-15T18:48:36.552Z,59.88
2018-12-15T18:51:03.956Z,73.57
2018-12-15T18:53:31.354Z,56.98
2018-12-15T18:55:58.809Z,65.40
2018-12-15T18:58:26.209Z,65.97
2018-12-15T19:00:53.604Z,60.20
2018-12-15T19:03:21.009Z,64.92
2018-12-15T19:05:48.410Z,66.95
2018-12-15T19:08:15.796Z,59.45
2018-12-15T19:10:43.209Z,70.03
2018-12-15T19:13:10.605Z,61.92
2018-12-15T19:15:38.059Z,63.83
2018-12-15T19:18:05.592Z,62.65
2018-12-15T19:20:33.105Z,70.55
2018-12-15T19:23:00.540Z,56.15
2018-12-15T19:25:28.004Z,64.25
2018-12-15T19:27:55.404Z,52.85
2018-12-15T19:30:22.810Z,59.93
2018-12-15T19:32:50.220Z,58.87
2018-12-15T19:35:17.623Z,65.83
2018-12-15T19:37:45.062Z,63.05
2018-12-15T19:40:12.471Z,64.97
2018-12-15T19:42:39.868Z,64.67
2018-12-15T19:45:08.177Z,62.67
2018-12-15T19:47:36.051Z,67.78
2018-12-15T19:50:05.040Z,67.53
2018-12-15T19:52:32.446Z,60.10
2018-12-15T19:54:59.858Z,64.75
2018-12-15T19:57:27.308Z,70.17
2018-12-15T19:59:54.718Z,64.85
2018-12-15T20:02:22.176Z,72.50
2018-12-15T20:04:49.581Z,69.27
2018-12-15T20:07:16.980Z,65.47
2018-12-15T20:09:44.393Z,67.97
2018-12-15T20:12:11.792Z,64.47
2018-12-15T20:14:39.190Z,75.72
2018-12-15T20:17:07.536Z,72.53
2018-12-15T20:19:34.925Z,69.77
2018-12-15T20:22:02.316Z,70.25
2018-12-15T20:24:30.724Z,76.77
2018-12-15T20:26:58.125Z,80.62
2018-12-15T20:29:26.441Z,69.85
2018-12-15T20:31:54.884Z,76.33
2018-12-15T20:34:22.292Z,78.10
2018-12-15T20:36:50.706Z,68.62
2018-12-15T20:39:19.052Z,70.52
2018-12-15T20:41:46.453Z,75.12
2018-12-15T20:44:13.897Z,78.12
2018-12-15T20:46:42.248Z,78.78
2018-12-15T20:49:09.682Z,78.28
2018-12-15T20:51:42.666Z,74.65
2018-12-15T20:54:06.886Z,72.67
2018-12-15T20:56:34.281Z,77.97
2018-12-15T20:59:01.675Z,82.45
2018-12-15T21:01:30.100Z,79.75
2018-12-15T21:03:57.512Z,79.95
2018-12-15T21:06:24.913Z,74.30
2018-12-15T21:08:52.321Z,99.20
2018-12-15T21:11:24.144Z,78.85
2018-12-15T21:13:49.108Z,81.00
2018-12-15T21:16:16.520Z,75.92
2018-12-15T21:18:43.972Z,79.25
2018-12-15T21:21:11.413Z,75.50
2018-12-15T21:23:39.928Z,79.42
2018-12-15T21:26:07.324Z,86.57
2018-12-15T21:28:34.829Z,80.62
2018-12-15T21:31:02.236Z,95.72
2018-12-15T21:33:29.646Z,87.53
2018-12-15T21:35:58.021Z,83.25
2018-12-15T21:38:25.433Z,77.45
2018-12-15T21:40:52.852Z,88.82
2018-12-15T21:43:21.216Z,90.97
2018-12-15T21:45:48.633Z,94.87
2018-12-15T21:48:16.037Z,97.45
2018-12-15T21:50:43.498Z,87.02
2018-12-15T21:53:10.897Z,101.07
2018-12-15T21:55:38.296Z,96.00
2018-12-15T21:58:05.696Z,99.85
2018-12-15T22:00:33.110Z,100.40
2018-12-15T22:03:00.601Z,104.92
2018-12-15T22:05:27.985Z,94.00
2018-12-15T22:07:57.041Z,102.00
2018-12-15T22:10:24.610Z,102.17
2018-12-15T22:12:52.010Z,100.90
2018-12-15T22:15:19.433Z,111.22
2018-12-15T22:17:46.921Z,82.78
2018-12-15T22:20:14.668Z,106.83
2018-12-15T22:22:42.241Z,100.90
2018-12-15T22:25:09.642Z,90.62
2018-12-15T22:27:37.036Z,97.55
2018-12-15T22:30:06.085Z,98.42
2018-12-15T22:32:33.481Z,96.55
2018-12-15T22:35:00.921Z,91.28
2018-12-15T22:37:28.322Z,102.58
2018-12-15T22:39:55.716Z,94.58
2018-12-15T22:42:23.117Z,89.15
2018-12-15T22:44:50.525Z,91.67
2018-12-15T22:47:17.925Z,93.25
2018-12-15T22:49:45.349Z,92.02
2018-12-15T22:52:12.928Z,101.20
2018-12-15T22:54:40.330Z,94.50
2018-12-15T22:57:07.738Z,104.17
2018-12-15T22:59:35.242Z,97.90
2018-12-15T23:02:02.684Z,95.80
2018-12-15T23:04:30.077Z,93.22
2018-12-15T23:06:57.497Z,103.50
2018-12-15T23:09:24.940Z,91.57
2018-12-15T23:11:52.429Z,98.70
2018-12-15T23:14:19.844Z,90.50
2018-12-15T23:16:47.301Z,81.30
2018-12-15T23:19:14.713Z,94.15
2018-12-15T23:21:42.133Z,101.80
2018-12-15T23:24:09.529Z,100.25
2018-12-15T23:26:36.929Z,89.15
2018-12-15T23:29:04.481Z,92.65
2018-12-15T23:31:31.928Z,104.95
2018-12-15T23:33:59.381Z,107.03
2018-12-15T23:36:27.744Z,85.83
2018-12-15T23:38:55.148Z,86.37
2018-12-15T23:41:22.544Z,86.50
2018-12-15T23:43:49.956Z,98.15
2018-12-15T23:46:17.359Z,101.12
2018-12-15T23:48:44.753Z,98.72
2018-12-15T23:51:12.228Z,93.50
2018-12-15T23:53:39.616Z,95.47
2018-12-15T23:56:07.064Z,98.20
2018-12-15T23:58:34.525Z,84.52
